sensor_id;sensor_type;location;lat;lon;timestamp;P1;durP1;ratioP1;P2;durP2;ratioP2
7829;SDS011;3960;51.86894000;5.39848000;2023-04-01T00:01:54;13.35;;;8.43;;
7829;SDS011;3960;51.86894000;5.39848000;2023-04-01T00:04:19;10.82;;;6.47;;
7829;SDS011;3960;51.86894000;5.39848000;2023-04-01T00:06:45;16.05;;;8.27;;
7829;SDS011;3960;51.86894000;5.39848000;2023-04-01T00:09:12;15.13;;;8.45;;
7829;SDS011;3960;51.86894000;5.39848000;2023-04-01T00:11:41;12.70;;;8.55;;
7829;SDS011;3960;51.86894000;5.39848000;2023-04-01T00:14:06;11.90;;;8.50;;
7829;SDS011;3960;51.86894000;5.39848000;2023-04-01T00:16:32;22.65;;;9.90;;
7829;SDS011;3960;51.86894000;5.39848000;2023-04-01T00:18:58;19.02;;;9.95;;
7829;SDS011;3960;51.86894000;5.39848000;2023-04-01T00:21:25;19.38;;;9.90;;
7829;SDS011;3960;51.86894000;5.39848000;2023-04-01T00:23:51;19.40;;;10.93;;
7829;SDS011;3960;51.86894000;5.39848000;2023-04-01T00:29:41;19.42;;;10.18;;
7829;SDS011;3960;51.86894000;5.39848000;2023-04-01T00:32:10;25.48;;;11.10;;
7829;SDS011;3960;51.86894000;5.39848000;2023-04-01T00:34:36;22.10;;;10.88;;
7829;SDS011;3960;51.86894000;5.39848000;2023-04-01T00:37:02;21.85;;;10.95;;
7829;SDS011;3960;51.86894000;5.39848000;2023-04-01T00:39:31;27.17;;;11.38;;
7829;SDS011;3960;51.86894000;5.39848000;2023-04-01T00:41:57;22.58;;;11.32;;
7829;SDS011;3960;51.86894000;5.39848000;2023-04-01T00:44:25;27.85;;;10.05;;
7829;SDS011;3960;51.86894000;5.39848000;2023-04-01T00:46:52;25.98;;;10.88;;
7829;SDS011;3960;51.86894000;5.39848000;2023-04-01T00:49:19;24.88;;;10.65;;
7829;SDS011;3960;51.86894000;5.39848000;2023-04-01T00:51:47;27.38;;;10.13;;
7829;SDS011;3960;51.86894000;5.39848000;2023-04-01T00:54:15;21.25;;;9.80;;
7829;SDS011;3960;51.86894000;5.39848000;2023-04-01T00:56:46;22.25;;;9.93;;
7829;SDS011;3960;51.86894000;5.39848000;2023-04-01T00:59:16;19.90;;;9.85;;
7829;SDS011;3960;51.86894000;5.39848000;2023-04-01T01:01:46;24.30;;;6.82;;
7829;SDS011;3960;51.86894000;5.39848000;2023-04-01T01:07:03;19.73;;;7.45;;
7829;SDS011;3960;51.86894000;5.39848000;2023-04-01T01:12:53;23.15;;;6.50;;
7829;SDS011;3960;51.86894000;5.39848000;2023-04-01T01:17:58;29.10;;;7.55;;
7829;SDS011;3960;51.86894000;5.39848000;2023-04-01T01:36:48;30.88;;;9.02;;
7829;SDS011;3960;51.86894000;5.39848000;2023-04-01T01:39:19;36.08;;;8.60;;
7829;SDS011;3960;51.86894000;5.39848000;2023-04-01T01:41:51;38.30;;;10.00;;
7829;SDS011;3960;51.86894000;5.39848000;2023-04-01T01:44:17;30.80;;;8.70;;
7829;SDS011;3960;51.86894000;5.39848000;2023-04-01T01:46:43;28.25;;;7.55;;
7829;SDS011;3960;51.86894000;5.39848000;2023-04-01T01:49:10;27.42;;;8.00;;
7829;SDS011;3960;51.86894000;5.39848000;2023-04-01T01:51:38;33.50;;;8.98;;
7829;SDS011;3960;51.86894000;5.39848000;2023-04-01T01:54:04;23.40;;;7.03;;
7829;SDS011;3960;51.86894000;5.39848000;2023-04-01T01:56:30;29.35;;;8.45;;
7829;SDS011;3960;51.86894000;5.39848000;2023-04-01T01:59:03;25.65;;;8.20;;
7829;SDS011;3960;51.86894000;5.39848000;2023-04-01T02:01:34;30.73;;;8.05;;
7829;SDS011;3960;51.86894000;5.39848000;2023-04-01T02:04:02;26.40;;;7.03;;
7829;SDS011;3960;51.86894000;5.39848000;2023-04-01T02:06:28;19.30;;;6.80;;
7829;SDS011;3960;51.86894000;5.39848000;2023-04-01T02:08:59;16.63;;;6.22;;
7829;SDS011;3960;51.86894000;5.39848000;2023-04-01T02:11:30;26.00;;;7.85;;
7829;SDS011;3960;51.86894000;5.39848000;2023-04-01T02:16:35;24.65;;;8.30;;
7829;SDS011;3960;51.86894000;5.39848000;2023-04-01T02:19:05;23.63;;;8.20;;
7829;SDS011;3960;51.86894000;5.39848000;2023-04-01T02:21:32;26.25;;;8.60;;
7829;SDS011;3960;51.86894000;5.39848000;2023-04-01T02:23:59;25.17;;;7.90;;
7829;SDS011;3960;51.86894000;5.39848000;2023-04-01T02:26:27;21.33;;;7.60;;
7829;SDS011;3960;51.86894000;5.39848000;2023-04-01T02:28:53;20.13;;;7.97;;
7829;SDS011;3960;51.86894000;5.39848000;2023-04-01T02:31:20;30.90;;;8.13;;
7829;SDS011;3960;51.86894000;5.39848000;2023-04-01T02:33:46;18.35;;;6.97;;
7829;SDS011;3960;51.86894000;5.39848000;2023-04-01T02:36:13;17.55;;;5.93;;
7829;SDS011;3960;51.86894000;5.39848000;2023-04-01T02:38:39;18.85;;;6.72;;
7829;SDS011;3960;51.86894000;5.39848000;2023-04-01T02:41:05;17.17;;;6.63;;
7829;SDS011;3960;51.86894000;5.39848000;2023-04-01T02:43:31;21.02;;;7.10;;
7829;SDS011;3960;51.86894000;5.39848000;2023-04-01T02:45:56;17.05;;;7.22;;
7829;SDS011;3960;51.86894000;5.39848000;2023-04-01T02:48:21;15.15;;;5.85;;
7829;SDS011;3960;51.86894000;5.39848000;2023-04-01T02:50:47;14.40;;;5.72;;
7829;SDS011;3960;51.86894000;5.39848000;2023-04-01T02:53:12;18.17;;;6.45;;
7829;SDS011;3960;51.86894000;5.39848000;2023-04-01T02:55:38;16.77;;;5.88;;
7829;SDS011;3960;51.86894000;5.39848000;2023-04-01T02:58:03;24.25;;;6.13;;
7829;SDS011;3960;51.86894000;5.39848000;2023-04-01T03:00:29;16.83;;;5.40;;
7829;SDS011;3960;51.86894000;5.39848000;2023-04-01T03:02:55;14.05;;;6.68;;
7829;SDS011;3960;51.86894000;5.39848000;2023-04-01T03:05:21;15.95;;;6.93;;
7829;SDS011;3960;51.86894000;5.39848000;2023-04-01T03:07:47;20.83;;;6.68;;
7829;SDS011;3960;51.86894000;5.39848000;2023-04-01T03:10:12;14.90;;;5.88;;
7829;SDS011;3960;51.86894000;5.39848000;2023-04-01T03:12:38;16.00;;;5.97;;
7829;SDS011;3960;51.86894000;5.39848000;2023-04-01T03:15:03;17.40;;;6.30;;
7829;SDS011;3960;51.86894000;5.39848000;2023-04-01T03:17:29;20.50;;;6.18;;
7829;SDS011;3960;51.86894000;5.39848000;2023-04-01T03:19:55;20.15;;;6.68;;
7829;SDS011;3960;51.86894000;5.39848000;2023-04-01T03:22:20;16.90;;;6.43;;
7829;SDS011;3960;51.86894000;5.39848000;2023-04-01T03:24:46;15.63;;;5.85;;
7829;SDS011;3960;51.86894000;5.39848000;2023-04-01T03:27:12;14.35;;;6.93;;
7829;SDS011;3960;51.86894000;5.39848000;2023-04-01T03:29:37;15.80;;;6.20;;
7829;SDS011;3960;51.86894000;5.39848000;2023-04-01T03:32:02;14.73;;;6.53;;
7829;SDS011;3960;51.86894000;5.39848000;2023-04-01T03:34:28;20.60;;;8.00;;
7829;SDS011;3960;51.86894000;5.39848000;2023-04-01T03:36:53;21.10;;;7.82;;
7829;SDS011;3960;51.86894000;5.39848000;2023-04-01T03:39:19;21.77;;;8.25;;
7829;SDS011;3960;51.86894000;5.39848000;2023-04-01T03:41:45;24.02;;;9.15;;
7829;SDS011;3960;51.86894000;5.39848000;2023-04-01T03:44:11;18.45;;;8.60;;
7829;SDS011;3960;51.86894000;5.39848000;2023-04-01T03:46:36;23.83;;;9.30;;
7829;SDS011;3960;51.86894000;5.39848000;2023-04-01T03:49:02;20.58;;;9.80;;
7829;SDS011;3960;51.86894000;5.39848000;2023-04-01T03:51:27;22.40;;;9.20;;
7829;SDS011;3960;51.86894000;5.39848000;2023-04-01T03:53:52;22.88;;;10.18;;
7829;SDS011;3960;51.86894000;5.39848000;2023-04-01T03:56:18;16.45;;;8.93;;
7829;SDS011;3960;51.86894000;5.39848000;2023-04-01T03:58:43;21.80;;;9.77;;
7829;SDS011;3960;51.86894000;5.39848000;2023-04-01T04:01:16;22.77;;;10.70;;
7829;SDS011;3960;51.86894000;5.39848000;2023-04-01T04:03:43;25.52;;;10.30;;
7829;SDS011;3960;51.86894000;5.39848000;2023-04-01T04:06:16;22.52;;;10.02;;
7829;SDS011;3960;51.86894000;5.39848000;2023-04-01T04:08:43;19.05;;;9.88;;
7829;SDS011;3960;51.86894000;5.39848000;2023-04-01T04:11:09;20.95;;;10.85;;
7829;SDS011;3960;51.86894000;5.39848000;2023-04-01T04:13:34;21.15;;;10.77;;
7829;SDS011;3960;51.86894000;5.39848000;2023-04-01T04:16:01;24.05;;;12.13;;
7829;SDS011;3960;51.86894000;5.39848000;2023-04-01T04:18:27;21.65;;;11.68;;
7829;SDS011;3960;51.86894000;5.39848000;2023-04-01T04:20:52;24.02;;;11.50;;
7829;SDS011;3960;51.86894000;5.39848000;2023-04-01T04:23:18;18.15;;;10.65;;
7829;SDS011;3960;51.86894000;5.39848000;2023-04-01T04:25:53;18.85;;;11.07;;
7829;SDS011;3960;51.86894000;5.39848000;2023-04-01T04:28:20;20.05;;;11.45;;
7829;SDS011;3960;51.86894000;5.39848000;2023-04-01T04:30:45;24.60;;;12.52;;
7829;SDS011;3960;51.86894000;5.39848000;2023-04-01T04:33:10;20.13;;;11.10;;
7829;SDS011;3960;51.86894000;5.39848000;2023-04-01T04:35:35;19.73;;;9.70;;
7829;SDS011;3960;51.86894000;5.39848000;2023-04-01T04:38:01;15.05;;;9.63;;
7829;SDS011;3960;51.86894000;5.39848000;2023-04-01T04:40:26;18.90;;;10.77;;
7829;SDS011;3960;51.86894000;5.39848000;2023-04-01T04:42:51;17.33;;;10.63;;
7829;SDS011;3960;51.86894000;5.39848000;2023-04-01T04:45:17;18.75;;;11.02;;
7829;SDS011;3960;51.86894000;5.39848000;2023-04-01T04:47:42;25.67;;;12.48;;
7829;SDS011;3960;51.86894000;5.39848000;2023-04-01T04:50:08;23.67;;;13.52;;
7829;SDS011;3960;51.86894000;5.39848000;2023-04-01T04:52:33;26.73;;;13.48;;
7829;SDS011;3960;51.86894000;5.39848000;2023-04-01T04:54:59;30.30;;;14.70;;
7829;SDS011;3960;51.86894000;5.39848000;2023-04-01T04:57:24;32.33;;;15.10;;
7829;SDS011;3960;51.86894000;5.39848000;2023-04-01T04:59:50;33.67;;;15.90;;
7829;SDS011;3960;51.86894000;5.39848000;2023-04-01T05:02:15;31.95;;;15.15;;
7829;SDS011;3960;51.86894000;5.39848000;2023-04-01T05:04:40;37.80;;;15.57;;
7829;SDS011;3960;51.86894000;5.39848000;2023-04-01T05:07:06;38.22;;;17.10;;
7829;SDS011;3960;51.86894000;5.39848000;2023-04-01T05:09:31;31.63;;;15.15;;
7829;SDS011;3960;51.86894000;5.39848000;2023-04-01T05:11:57;33.13;;;15.57;;
7829;SDS011;3960;51.86894000;5.39848000;2023-04-01T05:14:22;32.85;;;14.93;;
7829;SDS011;3960;51.86894000;5.39848000;2023-04-01T05:16:47;37.08;;;15.43;;
7829;SDS011;3960;51.86894000;5.39848000;2023-04-01T05:19:14;35.28;;;15.10;;
7829;SDS011;3960;51.86894000;5.39848000;2023-04-01T05:21:39;38.38;;;14.93;;
7829;SDS011;3960;51.86894000;5.39848000;2023-04-01T05:24:07;42.08;;;17.10;;
7829;SDS011;3960;51.86894000;5.39848000;2023-04-01T05:26:33;36.67;;;16.17;;
7829;SDS011;3960;51.86894000;5.39848000;2023-04-01T05:28:58;37.90;;;16.77;;
7829;SDS011;3960;51.86894000;5.39848000;2023-04-01T05:31:23;40.75;;;16.88;;
7829;SDS011;3960;51.86894000;5.39848000;2023-04-01T05:33:49;36.40;;;17.33;;
7829;SDS011;3960;51.86894000;5.39848000;2023-04-01T05:36:15;39.25;;;16.95;;
7829;SDS011;3960;51.86894000;5.39848000;2023-04-01T05:38:41;36.83;;;16.92;;
7829;SDS011;3960;51.86894000;5.39848000;2023-04-01T05:41:07;45.65;;;17.63;;
7829;SDS011;3960;51.86894000;5.39848000;2023-04-01T05:43:35;42.88;;;17.58;;
7829;SDS011;3960;51.86894000;5.39848000;2023-04-01T05:46:01;43.72;;;17.52;;
7829;SDS011;3960;51.86894000;5.39848000;2023-04-01T05:48:26;44.17;;;18.08;;
7829;SDS011;3960;51.86894000;5.39848000;2023-04-01T05:50:51;46.17;;;19.08;;
7829;SDS011;3960;51.86894000;5.39848000;2023-04-01T05:53:16;42.67;;;18.65;;
7829;SDS011;3960;51.86894000;5.39848000;2023-04-01T05:55:42;50.38;;;19.67;;
7829;SDS011;3960;51.86894000;5.39848000;2023-04-01T05:58:07;48.13;;;20.20;;
7829;SDS011;3960;51.86894000;5.39848000;2023-04-01T06:00:32;47.95;;;19.33;;
7829;SDS011;3960;51.86894000;5.39848000;2023-04-01T06:02:58;51.25;;;20.83;;
7829;SDS011;3960;51.86894000;5.39848000;2023-04-01T06:05:26;49.83;;;19.20;;
7829;SDS011;3960;51.86894000;5.39848000;2023-04-01T06:07:58;46.00;;;20.30;;
7829;SDS011;3960;51.86894000;5.39848000;2023-04-01T06:10:39;58.67;;;20.70;;
7829;SDS011;3960;51.86894000;5.39848000;2023-04-01T06:13:22;48.40;;;19.48;;
7829;SDS011;3960;51.86894000;5.39848000;2023-04-01T06:22:08;41.00;;;17.27;;
7829;SDS011;3960;51.86894000;5.39848000;2023-04-01T06:24:49;42.75;;;18.08;;
7829;SDS011;3960;51.86894000;5.39848000;2023-04-01T06:35:36;39.17;;;17.83;;
7829;SDS011;3960;51.86894000;5.39848000;2023-04-01T06:43:36;34.70;;;17.23;;
7829;SDS011;3960;51.86894000;5.39848000;2023-04-01T06:49:13;42.80;;;17.38;;
7829;SDS011;3960;51.86894000;5.39848000;2023-04-01T06:52:05;37.17;;;16.33;;
7829;SDS011;3960;51.86894000;5.39848000;2023-04-01T06:54:42;39.90;;;16.52;;
7829;SDS011;3960;51.86894000;5.39848000;2023-04-01T06:59:59;36.58;;;16.65;;
7829;SDS011;3960;51.86894000;5.39848000;2023-04-01T07:02:37;37.72;;;16.05;;
7829;SDS011;3960;51.86894000;5.39848000;2023-04-01T07:05:08;36.92;;;15.85;;
7829;SDS011;3960;51.86894000;5.39848000;2023-04-01T07:10:14;36.33;;;14.70;;
7829;SDS011;3960;51.86894000;5.39848000;2023-04-01T07:12:46;29.92;;;14.27;;
7829;SDS011;3960;51.86894000;5.39848000;2023-04-01T07:15:20;30.50;;;14.60;;
7829;SDS011;3960;51.86894000;5.39848000;2023-04-01T07:17:53;34.60;;;15.00;;
7829;SDS011;3960;51.86894000;5.39848000;2023-04-01T07:20:23;31.63;;;14.40;;
7829;SDS011;3960;51.86894000;5.39848000;2023-04-01T07:22:54;32.13;;;13.27;;
7829;SDS011;3960;51.86894000;5.39848000;2023-04-01T07:28:13;26.08;;;12.52;;
7829;SDS011;3960;51.86894000;5.39848000;2023-04-01T07:33:56;29.92;;;13.18;;
7829;SDS011;3960;51.86894000;5.39848000;2023-04-01T07:49:40;25.70;;;11.17;;
7829;SDS011;3960;51.86894000;5.39848000;2023-04-01T07:52:41;20.20;;;10.57;;
7829;SDS011;3960;51.86894000;5.39848000;2023-04-01T07:55:30;21.55;;;10.82;;
7829;SDS011;3960;51.86894000;5.39848000;2023-04-01T07:58:23;23.63;;;11.27;;
7829;SDS011;3960;51.86894000;5.39848000;2023-04-01T08:01:11;26.17;;;11.75;;
7829;SDS011;3960;51.86894000;5.39848000;2023-04-01T08:03:52;29.67;;;10.88;;
7829;SDS011;3960;51.86894000;5.39848000;2023-04-01T08:06:37;22.15;;;10.98;;
7829;SDS011;3960;51.86894000;5.39848000;2023-04-01T08:15:09;26.75;;;12.38;;
7829;SDS011;3960;51.86894000;5.39848000;2023-04-01T08:20:19;25.98;;;13.45;;
7829;SDS011;3960;51.86894000;5.39848000;2023-04-01T08:34:32;24.98;;;12.50;;
7829;SDS011;3960;51.86894000;5.39848000;2023-04-01T08:37:04;28.70;;;13.50;;
7829;SDS011;3960;51.86894000;5.39848000;2023-04-01T08:39:37;29.15;;;14.20;;
7829;SDS011;3960;51.86894000;5.39848000;2023-04-01T08:47:49;31.10;;;13.32;;
7829;SDS011;3960;51.86894000;5.39848000;2023-04-01T08:53:46;35.60;;;15.13;;
7829;SDS011;3960;51.86894000;5.39848000;2023-04-01T08:56:48;33.88;;;14.18;;
7829;SDS011;3960;51.86894000;5.39848000;2023-04-01T09:02:40;35.35;;;14.90;;
7829;SDS011;3960;51.86894000;5.39848000;2023-04-01T09:11:06;31.58;;;14.38;;
7829;SDS011;3960;51.86894000;5.39848000;2023-04-01T09:13:38;34.38;;;14.70;;
7829;SDS011;3960;51.86894000;5.39848000;2023-04-01T09:40:47;27.98;;;14.77;;
7829;SDS011;3960;51.86894000;5.39848000;2023-04-01T09:46:11;35.75;;;15.15;;
7829;SDS011;3960;51.86894000;5.39848000;2023-04-01T09:49:04;41.03;;;15.38;;
7829;SDS011;3960;51.86894000;5.39848000;2023-04-01T09:56:51;31.92;;;16.00;;
7829;SDS011;3960;51.86894000;5.39848000;2023-04-01T10:57:02;18.50;;;11.15;;
7829;SDS011;3960;51.86894000;5.39848000;2023-04-01T11:05:34;16.85;;;10.05;;
7829;SDS011;3960;51.86894000;5.39848000;2023-04-01T11:16:45;17.67;;;11.63;;
7829;SDS011;3960;51.86894000;5.39848000;2023-04-01T11:22:24;17.27;;;10.13;;
7829;SDS011;3960;51.86894000;5.39848000;2023-04-01T11:25:00;15.68;;;9.98;;
7829;SDS011;3960;51.86894000;5.39848000;2023-04-01T11:30:08;19.70;;;10.43;;
7829;SDS011;3960;51.86894000;5.39848000;2023-04-01T11:41:15;16.80;;;9.40;;
7829;SDS011;3960;51.86894000;5.39848000;2023-04-01T11:51:55;15.75;;;10.38;;
7829;SDS011;3960;51.86894000;5.39848000;2023-04-01T12:02:48;13.55;;;8.32;;
7829;SDS011;3960;51.86894000;5.39848000;2023-04-01T12:05:37;12.43;;;9.30;;
7829;SDS011;3960;51.86894000;5.39848000;2023-04-01T12:08:18;12.65;;;8.73;;
7829;SDS011;3960;51.86894000;5.39848000;2023-04-01T12:11:04;17.38;;;8.77;;
7829;SDS011;3960;51.86894000;5.39848000;2023-04-01T12:13:48;9.23;;;7.38;;
7829;SDS011;3960;51.86894000;5.39848000;2023-04-01T12:23:46;10.25;;;5.95;;
7829;SDS011;3960;51.86894000;5.39848000;2023-04-01T12:35:15;8.80;;;5.35;;
7829;SDS011;3960;51.86894000;5.39848000;2023-04-01T12:48:26;8.40;;;5.85;;
7829;SDS011;3960;51.86894000;5.39848000;2023-04-01T12:51:25;9.43;;;5.80;;
7829;SDS011;3960;51.86894000;5.39848000;2023-04-01T12:56:27;8.00;;;6.25;;
7829;SDS011;3960;51.86894000;5.39848000;2023-04-01T12:59:24;10.23;;;6.38;;
7829;SDS011;3960;51.86894000;5.39848000;2023-04-01T13:07:46;9.13;;;5.85;;
7829;SDS011;3960;51.86894000;5.39848000;2023-04-01T13:15:41;7.70;;;5.85;;
7829;SDS011;3960;51.86894000;5.39848000;2023-04-01T13:26:54;8.38;;;5.35;;
7829;SDS011;3960;51.86894000;5.39848000;2023-04-01T13:29:28;9.55;;;5.82;;
7829;SDS011;3960;51.86894000;5.39848000;2023-04-01T13:34:54;11.45;;;6.75;;
7829;SDS011;3960;51.86894000;5.39848000;2023-04-01T13:37:52;10.00;;;6.28;;
7829;SDS011;3960;51.86894000;5.39848000;2023-04-01T13:40:36;10.18;;;6.68;;
7829;SDS011;3960;51.86894000;5.39848000;2023-04-01T13:43:23;9.32;;;7.20;;
7829;SDS011;3960;51.86894000;5.39848000;2023-04-01T13:46:05;10.43;;;6.85;;
7829;SDS011;3960;51.86894000;5.39848000;2023-04-01T13:56:50;4.97;;;3.50;;
7829;SDS011;3960;51.86894000;5.39848000;2023-04-01T13:59:25;5.30;;;3.72;;
7829;SDS011;3960;51.86894000;5.39848000;2023-04-01T14:04:51;11.52;;;7.45;;
7829;SDS011;3960;51.86894000;5.39848000;2023-04-01T14:16:20;10.77;;;7.05;;
7829;SDS011;3960;51.86894000;5.39848000;2023-04-01T14:21:37;10.52;;;7.07;;
7829;SDS011;3960;51.86894000;5.39848000;2023-04-01T14:27:21;10.40;;;6.15;;
7829;SDS011;3960;51.86894000;5.39848000;2023-04-01T14:44:57;4.40;;;3.20;;
7829;SDS011;3960;51.86894000;5.39848000;2023-04-01T14:47:53;3.50;;;2.97;;
7829;SDS011;3960;51.86894000;5.39848000;2023-04-01T14:50:23;4.97;;;2.70;;
7829;SDS011;3960;51.86894000;5.39848000;2023-04-01T15:09:26;3.88;;;2.72;;
7829;SDS011;3960;51.86894000;5.39848000;2023-04-01T15:23:45;4.90;;;3.38;;
7829;SDS011;3960;51.86894000;5.39848000;2023-04-01T15:32:26;6.43;;;4.68;;
7829;SDS011;3960;51.86894000;5.39848000;2023-04-01T15:37:57;7.38;;;4.95;;
7829;SDS011;3960;51.86894000;5.39848000;2023-04-01T15:46:19;5.93;;;4.68;;
7829;SDS011;3960;51.86894000;5.39848000;2023-04-01T15:49:03;6.72;;;4.72;;
7829;SDS011;3960;51.86894000;5.39848000;2023-04-01T15:51:47;6.05;;;4.78;;
7829;SDS011;3960;51.86894000;5.39848000;2023-04-01T16:02:28;6.72;;;4.78;;
7829;SDS011;3960;51.86894000;5.39848000;2023-04-01T16:05:00;6.45;;;4.63;;
7829;SDS011;3960;51.86894000;5.39848000;2023-04-01T16:13:04;6.70;;;5.40;;
7829;SDS011;3960;51.86894000;5.39848000;2023-04-01T16:41:32;4.65;;;3.72;;
7829;SDS011;3960;51.86894000;5.39848000;2023-04-01T16:44:21;4.80;;;3.85;;
7829;SDS011;3960;51.86894000;5.39848000;2023-04-01T16:46:52;5.60;;;4.07;;
7829;SDS011;3960;51.86894000;5.39848000;2023-04-01T16:49:32;5.05;;;3.70;;
7829;SDS011;3960;51.86894000;5.39848000;2023-04-01T16:54:28;4.75;;;3.80;;
7829;SDS011;3960;51.86894000;5.39848000;2023-04-01T16:59:44;5.18;;;4.22;;
7829;SDS011;3960;51.86894000;5.39848000;2023-04-01T17:02:18;6.22;;;4.20;;
7829;SDS011;3960;51.86894000;5.39848000;2023-04-01T17:04:57;5.13;;;4.15;;
7829;SDS011;3960;51.86894000;5.39848000;2023-04-01T17:10:23;5.95;;;4.60;;
7829;SDS011;3960;51.86894000;5.39848000;2023-04-01T17:13:11;5.88;;;4.53;;
7829;SDS011;3960;51.86894000;5.39848000;2023-04-01T17:29:57;7.05;;;5.10;;
7829;SDS011;3960;51.86894000;5.39848000;2023-04-01T17:35:02;7.85;;;4.97;;
7829;SDS011;3960;51.86894000;5.39848000;2023-04-01T17:45:54;7.05;;;5.60;;
7829;SDS011;3960;51.86894000;5.39848000;2023-04-01T17:51:22;6.10;;;5.25;;
7829;SDS011;3960;51.86894000;5.39848000;2023-04-01T17:56:34;6.95;;;5.95;;
7829;SDS011;3960;51.86894000;5.39848000;2023-04-01T17:59:26;7.05;;;5.32;;
7829;SDS011;3960;51.86894000;5.39848000;2023-04-01T18:02:15;6.32;;;5.18;;
7829;SDS011;3960;51.86894000;5.39848000;2023-04-01T18:07:30;8.15;;;6.15;;
7829;SDS011;3960;51.86894000;5.39848000;2023-04-01T18:16:21;8.00;;;6.90;;
7829;SDS011;3960;51.86894000;5.39848000;2023-04-01T18:21:41;7.50;;;5.95;;
7829;SDS011;3960;51.86894000;5.39848000;2023-04-01T18:24:24;7.78;;;6.38;;
7829;SDS011;3960;51.86894000;5.39848000;2023-04-01T18:27:09;8.23;;;6.55;;
7829;SDS011;3960;51.86894000;5.39848000;2023-04-01T18:29:39;7.93;;;6.43;;
7829;SDS011;3960;51.86894000;5.39848000;2023-04-01T18:32:21;7.65;;;6.53;;
7829;SDS011;3960;51.86894000;5.39848000;2023-04-01T18:34:54;7.30;;;6.03;;
7829;SDS011;3960;51.86894000;5.39848000;2023-04-01T18:37:28;7.20;;;5.70;;
7829;SDS011;3960;51.86894000;5.39848000;2023-04-01T18:45:44;8.18;;;6.30;;
7829;SDS011;3960;51.86894000;5.39848000;2023-04-01T18:50:55;7.43;;;6.05;;
7829;SDS011;3960;51.86894000;5.39848000;2023-04-01T18:53:30;7.38;;;6.50;;
7829;SDS011;3960;51.86894000;5.39848000;2023-04-01T18:56:04;7.68;;;6.00;;
7829;SDS011;3960;51.86894000;5.39848000;2023-04-01T18:59:14;7.13;;;6.15;;
7829;SDS011;3960;51.86894000;5.39848000;2023-04-01T19:04:10;7.53;;;6.18;;
7829;SDS011;3960;51.86894000;5.39848000;2023-04-01T19:06:45;7.82;;;6.18;;
7829;SDS011;3960;51.86894000;5.39848000;2023-04-01T19:14:23;9.32;;;6.15;;
7829;SDS011;3960;51.86894000;5.39848000;2023-04-01T19:20:20;10.77;;;6.13;;
7829;SDS011;3960;51.86894000;5.39848000;2023-04-01T19:30:59;7.95;;;6.35;;
7829;SDS011;3960;51.86894000;5.39848000;2023-04-01T19:33:31;8.57;;;6.90;;
7829;SDS011;3960;51.86894000;5.39848000;2023-04-01T19:36:09;7.32;;;5.90;;
7829;SDS011;3960;51.86894000;5.39848000;2023-04-01T19:38:51;8.10;;;6.28;;
7829;SDS011;3960;51.86894000;5.39848000;2023-04-01T19:44:09;7.63;;;6.63;;
7829;SDS011;3960;51.86894000;5.39848000;2023-04-01T19:52:04;7.60;;;6.40;;
7829;SDS011;3960;51.86894000;5.39848000;2023-04-01T19:57:37;8.10;;;6.15;;
7829;SDS011;3960;51.86894000;5.39848000;2023-04-01T20:02:56;7.03;;;5.47;;
7829;SDS011;3960;51.86894000;5.39848000;2023-04-01T20:11:05;6.10;;;5.00;;
7829;SDS011;3960;51.86894000;5.39848000;2023-04-01T20:13:42;5.35;;;4.68;;
7829;SDS011;3960;51.86894000;5.39848000;2023-04-01T20:16:37;5.40;;;4.65;;
7829;SDS011;3960;51.86894000;5.39848000;2023-04-01T20:19:06;6.03;;;4.82;;
7829;SDS011;3960;51.86894000;5.39848000;2023-04-01T20:21:36;5.88;;;4.97;;
7829;SDS011;3960;51.86894000;5.39848000;2023-04-01T20:26:39;5.53;;;4.78;;
7829;SDS011;3960;51.86894000;5.39848000;2023-04-01T20:32:12;5.18;;;4.22;;
7829;SDS011;3960;51.86894000;5.39848000;2023-04-01T20:40:23;5.78;;;4.55;;
7829;SDS011;3960;51.86894000;5.39848000;2023-04-01T20:43:03;5.53;;;4.63;;
7829;SDS011;3960;51.86894000;5.39848000;2023-04-01T20:49:20;8.00;;;6.55;;
7829;SDS011;3960;51.86894000;5.39848000;2023-04-01T20:51:37;7.90;;;6.63;;
7829;SDS011;3960;51.86894000;5.39848000;2023-04-01T20:59:41;9.27;;;7.45;;
7829;SDS011;3960;51.86894000;5.39848000;2023-04-01T21:08:19;9.38;;;7.75;;
7829;SDS011;3960;51.86894000;5.39848000;2023-04-01T21:11:01;10.75;;;8.20;;
7829;SDS011;3960;51.86894000;5.39848000;2023-04-01T21:16:19;10.27;;;7.78;;
7829;SDS011;3960;51.86894000;5.39848000;2023-04-01T21:19:10;10.82;;;8.55;;
7829;SDS011;3960;51.86894000;5.39848000;2023-04-01T21:30:32;11.45;;;9.82;;
7829;SDS011;3960;51.86894000;5.39848000;2023-04-01T22:06:42;10.57;;;8.50;;
7829;SDS011;3960;51.86894000;5.39848000;2023-04-01T22:09:13;10.60;;;8.75;;
7829;SDS011;3960;51.86894000;5.39848000;2023-04-01T22:17:26;10.57;;;7.95;;
7829;SDS011;3960;51.86894000;5.39848000;2023-04-01T22:25:43;9.68;;;7.47;;
7829;SDS011;3960;51.86894000;5.39848000;2023-04-01T22:28:21;9.77;;;7.72;;
7829;SDS011;3960;51.86894000;5.39848000;2023-04-01T22:30:54;10.13;;;8.00;;
7829;SDS011;3960;51.86894000;5.39848000;2023-04-01T22:44:05;12.57;;;9.63;;
7829;SDS011;3960;51.86894000;5.39848000;2023-04-01T22:47:11;12.48;;;8.93;;
7829;SDS011;3960;51.86894000;5.39848000;2023-04-01T22:49:47;11.85;;;9.48;;
7829;SDS011;3960;51.86894000;5.39848000;2023-04-01T22:52:42;14.77;;;9.75;;
7829;SDS011;3960;51.86894000;5.39848000;2023-04-01T22:55:21;11.45;;;9.00;;
7829;SDS011;3960;51.86894000;5.39848000;2023-04-01T22:58:04;11.95;;;9.13;;
7829;SDS011;3960;51.86894000;5.39848000;2023-04-01T23:00:33;12.13;;;8.70;;
7829;SDS011;3960;51.86894000;5.39848000;2023-04-01T23:03:13;11.32;;;8.70;;
7829;SDS011;3960;51.86894000;5.39848000;2023-04-01T23:05:46;13.02;;;9.38;;
7829;SDS011;3960;51.86894000;5.39848000;2023-04-01T23:19:52;11.55;;;9.15;;
7829;SDS011;3960;51.86894000;5.39848000;2023-04-01T23:27:59;17.55;;;10.07;;
7829;SDS011;3960;51.86894000;5.39848000;2023-04-01T23:35:50;11.52;;;9.32;;
7829;SDS011;3960;51.86894000;5.39848000;2023-04-01T23:38:16;15.43;;;9.60;;
7829;SDS011;3960;51.86894000;5.39848000;2023-04-01T23:40:43;12.88;;;10.45;;
7829;SDS011;3960;51.86894000;5.39848000;2023-04-01T23:43:42;13.27;;;9.80;;
7829;SDS011;3960;51.86894000;5.39848000;2023-04-01T23:46:05;14.80;;;10.52;;
7829;SDS011;3960;51.86894000;5.39848000;2023-04-01T23:48:36;15.70;;;10.88;;
7829;SDS011;3960;51.86894000;5.39848000;2023-04-01T23:51:16;14.57;;;10.85;;
7829;SDS011;3960;51.86894000;5.39848000;2023-04-01T23:54:00;14.60;;;11.20;;
7829;SDS011;3960;51.86894000;5.39848000;2023-04-01T23:56:51;17.15;;;10.95;;
7829;SDS011;3960;51.86894000;5.39848000;2023-04-01T23:59:21;14.77;;;12.27;;
